.
WxDataArchive / Data Records for 2015-06-12
2015-06-11 June 2015 2015-06-13

Data Records for Friday, 12 June 2015

Time	Temp	Chill	HIndex	Humid	Dewpt	 Wind 	HiWind	WindDir	Rain 	Barom
-----	----	-----	------	-----	-----	------	------	-------	-----	-----
00:00	67.8	67.8	67.8	75	59.6	0	3	90	0.00	29.833 
00:05	67.8	67.8	67.8	76	59.9	0	3	90	0.00	29.833 
00:10	67.8	67.8	67.8	75	59.6	1	3	90	0.00	29.833 
00:15	67.6	67.6	67.6	75	59.4	1	4	90	0.00	29.823 
00:20	67.4	67.4	67.4	76	59.6	1	4	90	0.00	29.823 
00:25	67.3	67.3	67.3	76	59.5	0	2	90	0.00	29.823 
00:30	67.1	67.1	67.1	76	59.3	0	3	90	0.00	29.821 
00:35	66.9	66.9	66.9	76	59.1	1	3	90	0.00	29.821 
00:40	66.8	66.8	66.8	76	59.0	1	6	90	0.00	29.821 
00:45	66.6	66.6	66.6	75	58.4	1	3	90	0.00	29.816 
00:50	66.6	66.6	66.6	75	58.4	1	4	90	0.00	29.816 
00:55	66.4	66.4	66.4	75	58.2	0	2	90	0.00	29.816 
01:00	66.4	66.4	66.4	76	58.6	1	4	90	0.00	29.818 
01:05	66.3	66.3	66.3	76	58.5	1	4	90	0.00	29.818 
01:10	66.3	66.3	66.3	76	58.5	0	2	90	0.00	29.818 
01:15	66.1	66.1	66.1	76	58.3	1	4	90	0.00	29.820 
01:20	66.0	66.0	66.0	76	58.2	0	2	90	0.00	29.820 
01:25	66.0	66.0	66.0	77	58.6	0	2	90	0.00	29.820 
01:30	65.8	65.8	65.8	77	58.4	0	3	90	0.00	29.816 
01:35	65.6	65.6	65.6	77	58.2	0	2	90	0.00	29.816 
01:40	65.6	65.6	65.6	78	58.5	1	3	90	0.00	29.816 
01:45	65.5	65.5	65.5	78	58.5	1	4	90	0.00	29.814 
01:50	65.5	65.5	65.5	78	58.5	0	3	90	0.00	29.814 
01:55	65.5	65.5	65.5	78	58.5	1	4	90	0.00	29.814 
02:00	65.3	65.3	65.3	78	58.3	0	1	90	0.00	29.808 
02:05	65.3	65.3	65.3	78	58.3	0	2	90	0.00	29.808 
02:10	65.2	65.2	65.2	79	58.5	0	2	90	0.00	29.808 
02:15	65.2	65.2	65.2	79	58.5	0	2	90	0.00	29.804 
02:20	65.0	65.0	65.0	80	58.7	0	1	90	0.00	29.804 
02:25	65.0	65.0	65.0	80	58.7	0	1	90	0.00	29.804 
02:30	64.8	64.8	64.8	80	58.5	0	1	90	0.00	29.799 
02:35	64.8	64.8	64.8	80	58.5	0	1	90	0.00	29.799 
02:40	64.8	64.8	64.8	80	58.5	0	1	90	0.00	29.799 
02:45	64.7	64.7	64.7	80	58.4	0	1	90	0.00	29.796 
02:50	64.7	64.7	64.7	81	58.7	0	1	90	0.00	29.796 
02:55	64.7	64.7	64.7	81	58.7	0	1	90	0.00	29.796 
03:00	64.5	64.5	64.5	80	58.2	0	1	90	0.00	29.792 
03:05	64.5	64.5	64.5	81	58.5	0	1	90	0.00	29.792 
03:10	64.5	64.5	64.5	81	58.5	0	2	90	0.00	29.792 
03:15	64.5	64.5	64.5	81	58.5	0	2	90	0.00	29.792 
03:20	64.3	64.3	64.3	81	58.3	0	1	90	0.00	29.792 
03:25	64.3	64.3	64.3	81	58.3	0	2	90	0.00	29.792 
03:30	64.3	64.3	64.3	81	58.3	0	1	90	0.00	29.790 
03:35	64.3	64.3	64.3	81	58.3	0	1	90	0.00	29.790 
03:40	64.2	64.2	64.2	81	58.2	0	2	90	0.00	29.790 
03:45	64.2	64.2	64.2	81	58.2	0	4	90	0.00	29.785 
03:50	64.2	64.2	64.2	81	58.2	0	1	90	0.00	29.785 
03:55	64.2	64.2	64.2	82	58.6	0	2	90	0.00	29.785 
04:00	64.2	64.2	64.2	82	58.6	0	0	---	0.00	29.780 
04:05	64.0	64.0	64.0	82	58.4	0	1	90	0.00	29.780 
04:10	64.0	64.0	64.0	82	58.4	0	1	90	0.00	29.780 
04:15	63.9	63.9	63.9	82	58.3	0	1	90	0.00	29.777 
04:20	63.9	63.9	63.9	83	58.6	0	0	---	0.00	29.777 
04:25	63.9	63.9	63.9	83	58.6	0	0	---	0.00	29.777 
04:30	63.9	63.9	63.9	83	58.6	0	0	---	0.00	29.777 
04:35	63.7	63.7	63.7	83	58.4	0	0	---	0.00	29.777 
04:40	63.7	63.7	63.7	83	58.4	0	0	---	0.00	29.777 
04:45	63.7	63.7	63.7	84	58.8	0	0	---	0.00	29.775 
04:50	63.7	63.7	63.7	84	58.8	0	0	---	0.00	29.775 
04:55	63.7	63.7	63.7	84	58.8	0	0	---	0.00	29.775 
05:00	63.7	63.7	63.7	84	58.8	0	0	---	0.00	29.774 
05:05	63.5	63.5	63.5	84	58.6	0	0	---	0.00	29.774 
05:10	63.5	63.5	63.5	85	58.9	0	0	---	0.00	29.774 
05:15	63.5	63.5	63.5	85	58.9	0	0	---	0.00	29.768 
05:20	63.5	63.5	63.5	85	58.9	0	0	---	0.00	29.768 
05:25	63.5	63.5	63.5	85	58.9	0	0	---	0.00	29.768 
05:30	63.5	63.5	63.5	86	59.2	0	0	---	0.00	29.763 
05:35	63.5	63.5	63.5	86	59.2	0	0	---	0.00	29.763 
05:40	63.5	63.5	63.5	86	59.2	0	0	---	0.00	29.763 
05:45	63.5	63.5	63.5	86	59.2	0	0	---	0.00	29.763 
05:50	63.5	63.5	63.5	87	59.6	0	0	---	0.00	29.763 
05:55	63.4	63.4	63.4	87	59.5	0	0	---	0.00	29.763 
06:00	63.4	63.4	63.4	87	59.5	0	0	---	0.00	29.764 
06:05	63.5	63.5	63.5	88	59.9	0	0	---	0.00	29.764 
06:10	63.5	63.5	63.5	88	59.9	0	0	---	0.00	29.764 
06:15	63.7	63.7	63.7	88	60.1	0	0	---	0.00	29.765 
06:20	63.9	63.9	63.9	88	60.3	0	0	---	0.00	29.765 
06:25	64.0	64.0	64.0	89	60.7	0	0	---	0.00	29.765 
06:30	64.5	64.5	64.5	90	61.5	0	0	---	0.00	29.763 
06:35	65.0	65.0	65.0	90	62.0	0	0	---	0.00	29.763 
06:40	65.5	65.5	65.5	91	62.8	0	0	---	0.00	29.763 
06:45	66.0	66.0	66.0	91	63.3	0	0	---	0.00	29.762 
06:50	66.8	66.8	66.8	91	64.1	0	0	---	0.00	29.762 
06:55	67.3	67.3	67.3	91	64.6	0	0	---	0.00	29.762 
07:00	68.1	68.1	68.1	91	65.4	0	1	90	0.00	29.758 
07:05	68.8	68.8	68.8	91	66.1	0	1	90	0.00	29.758 
07:10	69.4	69.4	69.4	90	66.3	0	1	90	0.00	29.758 
07:15	70.1	70.1	70.1	90	67.0	0	1	90	0.00	29.759 
07:20	70.8	70.8	70.8	89	67.4	0	1	90	0.00	29.759 
07:25	71.3	71.3	71.3	89	67.9	0	1	90	0.00	29.759 
07:30	72.0	72.0	72.0	88	68.2	0	3	90	0.00	29.757 
07:35	72.7	72.7	72.7	86	68.3	0	2	270	0.00	29.757 
07:40	73.3	73.3	73.3	84	68.2	0	2	270	0.00	29.757 
07:45	74.2	74.2	74.2	83	68.7	0	1	270	0.00	29.755 
07:50	75.1	75.1	75.6	81	68.9	0	3	270	0.00	29.755 
07:55	75.6	75.6	76.6	78	68.2	1	5	270	0.00	29.755 
08:00	76.0	76.0	77.2	77	68.3	0	2	292	0.00	29.761 
08:05	76.1	76.1	77.4	77	68.3	0	2	292	0.00	29.761 
08:10	76.5	76.5	77.9	77	68.7	0	4	68	0.00	29.761 
08:15	76.7	76.7	78.2	76	68.5	1	4	338	0.00	29.763 
08:20	77.0	77.0	78.7	75	68.5	0	2	0	0.00	29.763 
08:25	77.7	77.7	79.7	74	68.7	0	3	292	0.00	29.763 
08:30	78.1	78.1	80.3	74	69.1	0	3	270	0.00	29.764 
08:35	78.6	78.6	81.0	73	69.2	1	3	270	0.00	29.764 
08:40	78.6	78.6	81.0	73	69.2	0	2	270	0.00	29.764 
08:45	78.5	78.5	80.8	72	68.7	1	4	248	0.00	29.767 
08:50	78.5	78.5	80.9	73	69.1	1	5	90	0.00	29.767 
08:55	78.5	78.5	80.9	73	69.1	1	4	270	0.00	29.767 
09:00	78.1	78.1	80.3	73	68.7	2	5	270	0.00	29.769 
09:05	78.1	78.1	80.3	73	68.7	1	4	45	0.00	29.769 
09:10	77.9	77.9	80.0	74	68.9	1	4	248	0.00	29.769 
09:15	77.9	77.9	80.0	74	68.9	1	3	248	0.00	29.773 
09:20	77.9	77.9	80.0	75	69.3	0	2	248	0.00	29.773 
09:25	77.9	77.9	80.0	75	69.3	1	4	248	0.00	29.773 
09:30	78.1	78.1	80.3	74	69.1	0	4	315	0.00	29.774 
09:35	78.1	78.1	80.3	74	69.1	0	2	315	0.00	29.774 
09:40	78.1	78.1	80.3	74	69.1	0	2	315	0.00	29.774 
09:45	78.1	78.1	80.3	74	69.1	0	2	315	0.00	29.774 
09:50	77.9	77.9	80.0	75	69.3	1	3	338	0.00	29.774 
09:55	77.7	77.7	79.7	75	69.1	1	4	270	0.00	29.774 
10:00	77.7	77.7	79.7	76	69.5	0	2	270	0.00	29.775 
10:05	77.7	77.7	79.7	75	69.1	1	4	270	0.00	29.775 
10:10	77.9	77.9	80.0	75	69.3	0	2	270	0.00	29.775 
10:15	77.7	77.7	79.7	75	69.1	1	3	270	0.00	29.781 
10:20	77.7	77.7	79.7	76	69.5	0	3	270	0.00	29.781 
10:25	77.7	77.7	79.7	76	69.5	0	4	270	0.00	29.781 
10:30	77.7	77.7	79.7	76	69.5	0	2	270	0.00	29.790 
10:35	77.7	77.7	79.7	76	69.5	0	3	270	0.00	29.790 
10:40	77.7	77.7	79.7	76	69.5	1	3	270	0.00	29.790 
10:45	77.7	77.7	79.7	76	69.5	0	2	270	0.00	29.790 
10:50	77.6	77.6	79.6	76	69.4	1	4	270	0.00	29.790 
10:55	77.6	77.6	79.6	76	69.4	0	2	270	0.00	29.790 
11:00	77.6	77.6	79.6	76	69.4	1	4	270	0.00	29.799 
11:05	77.4	77.4	79.3	77	69.6	0	4	90	0.00	29.799 
11:10	77.4	77.4	79.3	77	69.6	0	1	90	0.00	29.799 
11:15	77.2	77.2	79.0	77	69.4	0	2	90	0.00	29.808 
11:20	77.0	77.0	78.6	80	70.3	0	2	90	0.02	29.808 
11:25	76.3	76.3	77.4	81	70.0	0	2	90	0.01	29.808 
11:30	75.8	75.8	76.4	83	70.3	0	2	90	0.00	29.808 
11:35	75.4	75.4	75.7	84	70.2	0	4	90	0.00	29.808 
11:40	75.3	75.3	75.4	85	70.5	0	3	90	0.00	29.808 
11:45	75.4	75.4	75.4	86	70.9	0	1	90	0.00	29.807 
11:50	75.6	75.6	75.8	86	71.1	1	3	90	0.00	29.807 
11:55	75.4	75.4	75.4	86	70.9	0	3	90	0.00	29.807 
12:00	75.4	75.4	75.4	86	70.9	0	2	90	0.00	29.813 
12:05	74.7	74.7	74.7	84	69.5	4	11	270	0.03	29.813 
12:10	72.7	72.7	72.7	86	68.3	3	10	292	0.10	29.813 
12:15	71.5	71.5	71.5	88	67.7	3	7	292	0.00	29.835 
12:20	70.8	70.8	70.8	89	67.4	1	5	292	0.04	29.835 
12:25	70.6	70.6	70.6	90	67.5	1	3	292	0.02	29.835 
12:30	70.6	70.6	70.6	91	67.8	0	2	292	0.01	29.825 
12:35	70.6	70.6	70.6	92	68.2	0	2	292	0.01	29.825 
12:40	70.6	70.6	70.6	92	68.2	0	1	292	0.01	29.825 
12:45	70.6	70.6	70.6	92	68.2	0	1	292	0.02	29.814 
12:50	70.8	70.8	70.8	92	68.4	0	1	292	0.01	29.814 
12:55	70.8	70.8	70.8	93	68.7	0	0	---	0.01	29.814 
13:00	70.9	70.9	70.9	93	68.8	0	0	---	0.00	29.816 
13:05	71.3	71.3	71.3	93	69.2	0	1	292	0.00	29.816 
13:10	71.8	71.8	71.8	94	70.0	0	2	292	0.00	29.816 
13:15	72.1	72.1	72.1	94	70.3	1	3	292	0.00	29.815 
13:20	72.7	72.7	72.7	94	70.9	1	2	292	0.00	29.815 
13:25	72.7	72.7	72.7	94	70.9	1	3	292	0.00	29.815 
13:30	72.7	72.7	72.7	93	70.6	1	4	292	0.00	29.820 
13:35	73.2	73.2	73.2	94	71.4	1	2	292	0.00	29.820 
13:40	73.2	73.2	73.2	94	71.4	0	2	292	0.00	29.820 
13:45	73.2	73.2	73.2	93	71.0	1	3	292	0.00	29.826 
13:50	72.8	72.8	72.8	93	70.7	2	5	292	0.00	29.826 
13:55	72.7	72.7	72.7	92	70.2	1	3	292	0.00	29.826 
14:00	72.7	72.7	72.7	92	70.2	1	5	270	0.00	29.816 
14:05	72.8	72.8	72.8	91	70.0	1	4	270	0.00	29.816 
14:10	73.7	73.7	73.7	91	70.9	1	3	270	0.00	29.816 
14:15	74.7	74.7	74.7	90	71.6	0	3	270	0.00	29.798 
14:20	75.1	75.1	74.6	88	71.3	1	3	270	0.00	29.798 
14:25	74.7	74.7	74.7	86	70.2	1	3	270	0.00	29.798 
14:30	74.6	74.6	74.6	84	69.4	1	3	270	0.00	29.795 
14:35	75.1	75.1	75.0	85	70.3	0	2	270	0.00	29.795 
14:40	75.8	75.8	76.3	84	70.6	1	4	270	0.00	29.795 
14:45	76.1	76.1	77.0	82	70.2	1	4	270	0.00	29.807 
14:50	76.7	76.7	78.0	81	70.4	1	4	270	0.00	29.807 
14:55	77.0	77.0	78.6	79	70.0	1	5	270	0.00	29.807 
15:00	77.0	77.0	78.6	78	69.6	2	5	270	0.00	29.821 
15:05	76.8	76.8	78.3	78	69.4	0	3	270	0.00	29.821 
15:10	76.8	76.8	78.3	78	69.4	0	2	270	0.00	29.821 
15:15	77.0	77.0	78.6	79	70.0	0	2	270	0.00	29.824 
15:20	77.4	77.4	79.3	79	70.4	1	3	270	0.00	29.824 
15:25	78.1	78.1	80.4	78	70.7	1	3	270	0.00	29.824 
15:30	78.3	78.3	80.7	77	70.5	1	3	270	0.00	29.824 
15:35	78.1	78.1	80.4	77	70.3	1	3	270	0.00	29.824 
15:40	77.9	77.9	80.0	76	69.7	1	4	270	0.00	29.824 
15:45	77.9	77.9	80.1	77	70.1	1	3	270	0.00	29.824 
15:50	78.1	78.1	80.4	76	69.9	1	3	270	0.00	29.824 
15:55	78.5	78.5	81.0	76	70.3	0	2	270	0.00	29.824 
16:00	79.2	79.2	82.2	76	71.0	0	2	270	0.00	29.810 
16:05	79.8	79.8	83.2	75	71.1	0	2	270	0.00	29.810 
16:10	79.8	79.8	83.0	73	70.4	1	4	270	0.00	29.810 
16:15	79.4	79.4	82.3	73	70.0	0	2	270	0.00	29.808 
16:20	79.2	79.2	82.1	75	70.6	0	3	270	0.00	29.808 
16:25	79.2	79.2	82.2	76	71.0	0	2	270	0.00	29.808 
16:30	79.4	79.4	82.5	75	70.8	0	3	270	0.00	29.806 
16:35	79.4	79.4	82.5	75	70.8	1	3	270	0.00	29.806 
16:40	79.8	79.8	83.2	75	71.1	1	3	270	0.00	29.806 
16:45	79.9	79.9	83.3	74	70.8	0	1	270	0.00	29.799 
16:50	79.9	79.9	83.4	75	71.2	0	2	270	0.00	29.799 
16:55	79.6	79.6	83.0	76	71.3	1	3	270	0.00	29.799 
17:00	78.8	78.8	81.5	76	70.6	1	4	270	0.00	29.802 
17:05	78.5	78.5	81.1	77	70.7	0	1	270	0.00	29.802 
17:10	78.1	78.1	80.4	77	70.3	0	2	270	0.00	29.802 
17:15	77.9	77.9	80.1	78	70.5	0	2	270	0.00	29.822 
17:20	77.7	77.7	79.7	77	69.9	0	1	270	0.00	29.822 
17:25	77.7	77.7	79.7	78	70.3	0	1	270	0.00	29.822 
17:30	77.7	77.7	79.7	78	70.3	0	0	---	0.00	29.812 
17:35	77.7	77.7	79.7	78	70.3	0	0	---	0.00	29.812 
17:40	77.9	77.9	80.1	78	70.5	0	0	---	0.00	29.812 
17:45	77.9	77.9	80.1	77	70.1	0	0	---	0.00	29.812 
17:50	77.9	77.9	80.1	78	70.5	0	0	---	0.00	29.812 
17:55	77.9	77.9	80.1	77	70.1	0	0	---	0.00	29.812 
18:00	77.9	77.9	80.1	79	70.8	0	0	---	0.00	29.813 
18:05	77.7	77.7	79.8	80	71.0	0	0	---	0.00	29.813 
18:10	77.6	77.6	79.6	81	71.3	0	0	---	0.01	29.813 
18:15	77.6	77.6	79.6	82	71.7	0	0	---	0.00	29.805 
18:20	77.2	77.2	78.8	83	71.6	0	0	---	0.00	29.805 
18:25	76.8	76.8	78.1	84	71.6	0	0	---	0.00	29.805 
18:30	76.5	76.5	77.5	84	71.3	0	0	---	0.00	29.816 
18:35	76.3	76.3	77.1	85	71.4	0	0	---	0.01	29.816 
18:40	76.1	76.1	76.6	86	71.6	0	0	---	0.00	29.816 
18:45	76.0	76.0	76.4	87	71.8	0	0	---	0.01	29.809 
18:50	75.8	75.8	75.9	88	72.0	0	0	---	0.01	29.809 
18:55	75.6	75.6	75.5	88	71.8	0	0	---	0.01	29.809 
19:00	75.4	75.4	75.0	89	71.9	0	0	---	0.01	29.812 
19:05	75.3	75.3	74.8	89	71.8	0	0	---	0.01	29.812 
19:10	75.1	75.1	74.3	90	72.0	0	0	---	0.01	29.812 
19:15	75.3	75.3	74.7	90	72.2	0	1	270	0.01	29.821 
19:20	74.9	74.9	74.9	90	71.8	0	0	---	0.01	29.821 
19:25	74.7	74.7	74.7	91	71.9	0	0	---	0.01	29.821 
19:30	74.6	74.6	74.6	91	71.8	0	1	270	0.01	29.813 
19:35	74.6	74.6	74.6	92	72.1	0	1	270	0.01	29.813 
19:40	74.6	74.6	74.6	92	72.1	0	0	---	0.01	29.813 
19:45	74.6	74.6	74.6	92	72.1	0	0	---	0.01	29.818 
19:50	74.6	74.6	74.6	92	72.1	0	1	270	0.01	29.818 
19:55	74.2	74.2	74.2	92	71.7	0	0	---	0.00	29.818 
20:00	73.9	73.9	73.9	92	71.4	0	1	270	0.01	29.832 
20:05	73.7	73.7	73.7	92	71.2	0	0	---	0.00	29.832 
20:10	73.7	73.7	73.7	92	71.2	0	1	270	0.00	29.832 
20:15	73.5	73.5	73.5	93	71.3	0	0	---	0.00	29.841 
20:20	73.5	73.5	73.5	93	71.3	0	0	---	0.01	29.841 
20:25	73.3	73.3	73.3	93	71.1	0	0	---	0.00	29.841 
20:30	73.3	73.3	73.3	93	71.1	0	1	270	0.00	29.841 
20:35	73.3	73.3	73.3	93	71.1	0	1	270	0.00	29.841 
20:40	73.2	73.2	73.2	93	71.0	2	5	270	0.00	29.841 
20:45	72.0	72.0	72.0	92	69.5	0	3	270	0.00	29.848 
20:50	70.6	70.6	70.6	92	68.2	1	3	270	0.00	29.848 
20:55	70.3	70.3	70.3	92	67.9	0	1	270	0.00	29.848 
21:00	70.3	70.3	70.3	92	67.9	0	0	---	0.00	29.853 
21:05	70.1	70.1	70.1	92	67.7	0	0	---	0.00	29.853 
21:10	69.9	69.9	69.9	92	67.5	0	0	---	0.00	29.853 
21:15	69.8	69.8	69.8	92	67.4	0	0	---	0.00	29.847 
21:20	69.8	69.8	69.8	92	67.4	0	0	---	0.00	29.847 
21:25	69.6	69.6	69.6	92	67.2	0	0	---	0.00	29.847 
21:30	69.6	69.6	69.6	92	67.2	0	0	---	0.00	29.847 
21:35	69.4	69.4	69.4	92	67.0	0	0	---	0.00	29.847 
21:40	69.4	69.4	69.4	92	67.0	0	0	---	0.00	29.847 
21:45	69.4	69.4	69.4	92	67.0	0	0	---	0.00	29.851 
21:50	69.4	69.4	69.4	93	67.3	0	0	---	0.00	29.851 
21:55	69.3	69.3	69.3	93	67.2	0	0	---	0.00	29.851 
22:00	69.4	69.4	69.4	93	67.3	0	0	---	0.00	29.869 
22:05	69.4	69.4	69.4	93	67.3	0	0	---	0.00	29.869 
22:10	69.4	69.4	69.4	93	67.3	0	0	---	0.00	29.869 
22:15	69.4	69.4	69.4	93	67.3	0	0	---	0.00	29.873 
22:20	69.6	69.6	69.6	93	67.5	0	0	---	0.00	29.873 
22:25	69.6	69.6	69.6	93	67.5	0	0	---	0.00	29.873 
22:30	69.4	69.4	69.4	93	67.3	0	0	---	0.00	29.870 
22:35	69.4	69.4	69.4	93	67.3	0	0	---	0.00	29.870 
22:40	69.4	69.4	69.4	93	67.3	0	0	---	0.00	29.870 
22:45	69.4	69.4	69.4	94	67.6	0	0	---	0.00	29.866 
22:50	69.4	69.4	69.4	94	67.6	0	0	---	0.00	29.866 
22:55	69.4	69.4	69.4	94	67.6	0	0	---	0.00	29.866 
23:00	69.3	69.3	69.3	94	67.5	0	0	---	0.00	29.869 
23:05	69.3	69.3	69.3	94	67.5	0	0	---	0.00	29.869 
23:10	69.3	69.3	69.3	94	67.5	0	0	---	0.00	29.869 
23:15	69.3	69.3	69.3	94	67.5	0	0	---	0.00	29.873 
23:20	69.3	69.3	69.3	94	67.5	0	0	---	0.00	29.873 
23:25	69.3	69.3	69.3	94	67.5	0	0	---	0.00	29.873 
23:30	69.3	69.3	69.3	94	67.5	0	0	---	0.00	29.874 
23:35	69.3	69.3	69.3	94	67.5	0	0	---	0.00	29.874 
23:40	69.3	69.3	69.3	94	67.5	0	0	---	0.00	29.874 
23:45	69.3	69.3	69.3	94	67.5	0	0	---	0.00	29.884 
23:50	69.3	69.3	69.3	94	67.5	0	0	---	0.00	29.884 
23:55	69.3	69.3	69.3	94	67.5	0	0	---	0.00	29.884 

CoCoRaHS
IN-AL-39
A2 Web Hosting
Creative Commons License
GoDaddy
search engine by freefind advanced

loaded 2018-11-13 18:22:56 • last modified 2010-11-18 10:43:29
Privacy PolicyDisclaimer
• wx.awcolley.com is powered by PmWiki v.2002016 •
• all content (unless otherwise noted) © 2018 A W Colley